createdAt,value
2018-05-17T00:00:06.921Z,11.34
2018-05-17T00:01:06.923Z,11.4
2018-05-17T00:02:06.997Z,11.42
2018-05-17T00:03:06.909Z,11.43
2018-05-17T00:04:06.933Z,11.38
2018-05-17T00:05:06.966Z,11.39
2018-05-17T00:06:06.889Z,11.38
2018-05-17T00:07:06.967Z,11.4
2018-05-17T00:08:06.898Z,11.36
2018-05-17T00:09:06.910Z,11.39
2018-05-17T00:10:06.904Z,11.35
2018-05-17T00:11:06.904Z,11.44
2018-05-17T00:12:07.002Z,11.37
2018-05-17T00:13:07.087Z,11.4
2018-05-17T00:14:06.899Z,11.39
2018-05-17T00:15:06.920Z,11.39
2018-05-17T00:16:07.038Z,11.35
2018-05-17T00:17:06.890Z,11.43
2018-05-17T00:18:06.974Z,11.46
2018-05-17T00:19:06.925Z,11.36
2018-05-17T00:20:06.960Z,11.34
2018-05-17T00:21:06.996Z,11.24
2018-05-17T00:22:07.079Z,11.3
2018-05-17T00:23:06.907Z,11.27
2018-05-17T00:24:06.940Z,11.34
2018-05-17T00:25:06.925Z,11.35
2018-05-17T00:26:06.955Z,11.38
2018-05-17T00:27:06.913Z,11.39
2018-05-17T00:28:07.004Z,11.45
2018-05-17T00:29:07.004Z,11.39
2018-05-17T00:30:07.021Z,11.41
2018-05-17T00:31:06.948Z,11.32
2018-05-17T00:32:06.939Z,11.31
2018-05-17T00:33:06.961Z,11.35
2018-05-17T00:34:06.944Z,11.39
2018-05-17T00:35:06.979Z,11.36
2018-05-17T00:36:06.971Z,11.32
2018-05-17T00:37:06.940Z,11.33
2018-05-17T00:38:06.915Z,11.39
2018-05-17T00:39:06.925Z,11.4
2018-05-17T00:40:07.031Z,11.37
2018-05-17T00:41:06.944Z,11.42
2018-05-17T00:42:06.945Z,11.4
2018-05-17T00:43:06.975Z,11.41
2018-05-17T00:44:06.959Z,11.36
2018-05-17T00:45:06.922Z,11.43
2018-05-17T00:46:06.931Z,11.41
2018-05-17T00:47:06.948Z,11.39
2018-05-17T00:48:06.958Z,11.4
2018-05-17T00:49:07.304Z,11.41
2018-05-17T00:50:06.952Z,11.43
2018-05-17T00:51:06.971Z,11.42
2018-05-17T00:52:06.917Z,11.44
2018-05-17T00:53:06.917Z,11.44
2018-05-17T00:54:07.064Z,11.51
2018-05-17T00:55:06.926Z,11.41
2018-05-17T00:56:06.938Z,11.48
2018-05-17T00:57:06.951Z,11.48
2018-05-17T00:58:06.980Z,11.4
2018-05-17T00:59:06.918Z,11.46
2018-05-17T01:00:07.060Z,11.43
2018-05-17T01:01:07.028Z,11.45
2018-05-17T01:02:06.934Z,11.45
2018-05-17T01:03:06.965Z,11.42
2018-05-17T01:04:06.996Z,11.39
2018-05-17T01:05:06.940Z,11.42
2018-05-17T01:06:06.929Z,11.35
2018-05-17T01:07:06.964Z,11.35
2018-05-17T01:08:06.916Z,11.33
2018-05-17T01:09:06.960Z,11.31
2018-05-17T01:10:06.924Z,11.28
2018-05-17T01:11:06.983Z,11.22
2018-05-17T01:12:07.075Z,11.16
2018-05-17T01:13:06.935Z,11.22
2018-05-17T01:14:07.041Z,11.23
2018-05-17T01:15:07.094Z,11.24
2018-05-17T01:16:06.913Z,11.29
2018-05-17T01:17:06.921Z,11.25
2018-05-17T01:18:06.961Z,11.31
2018-05-17T01:19:07.034Z,11.34
2018-05-17T01:20:06.926Z,11.29
2018-05-17T01:21:06.939Z,11.23
2018-05-17T01:22:06.962Z,11.24
2018-05-17T01:23:07.019Z,11.29
2018-05-17T01:24:07.043Z,11.3
2018-05-17T01:25:06.970Z,11.31
2018-05-17T01:26:06.965Z,11.21
2018-05-17T01:27:06.961Z,11.25
2018-05-17T01:28:06.978Z,11.22
2018-05-17T01:29:06.997Z,11.2
2018-05-17T01:30:06.951Z,11.22
2018-05-17T01:31:07.014Z,11.24
2018-05-17T01:32:06.975Z,11.25
2018-05-17T01:33:07.127Z,11.25
2018-05-17T01:34:06.970Z,11.23
2018-05-17T01:35:07.434Z,11.19
2018-05-17T01:36:07.051Z,11.2
2018-05-17T01:37:07.000Z,11.22
2018-05-17T01:38:07.029Z,11.28
2018-05-17T01:39:07.100Z,11.26
2018-05-17T01:40:06.932Z,11.25
2018-05-17T01:41:06.974Z,11.25
2018-05-17T01:42:07.324Z,11.24
2018-05-17T01:43:06.947Z,11.26
2018-05-17T01:44:06.956Z,11.27
2018-05-17T01:45:06.988Z,11.28
2018-05-17T01:46:06.960Z,11.29
2018-05-17T01:47:06.980Z,11.29
2018-05-17T01:48:06.956Z,11.25
2018-05-17T01:49:06.990Z,11.3
2018-05-17T01:50:06.953Z,11.33
2018-05-17T01:51:06.958Z,11.29
2018-05-17T01:52:06.969Z,11.3
2018-05-17T01:53:06.974Z,11.3
2018-05-17T01:54:06.963Z,11.31
2018-05-17T01:55:06.979Z,11.3
2018-05-17T01:56:06.958Z,11.33
2018-05-17T01:57:06.952Z,11.31
2018-05-17T01:58:06.959Z,11.29
2018-05-17T01:59:06.960Z,11.27
2018-05-17T02:00:06.988Z,11.26
2018-05-17T02:01:06.993Z,11.26
2018-05-17T02:02:06.970Z,11.27
2018-05-17T02:03:06.995Z,11.26
2018-05-17T02:04:07.205Z,11.27
2018-05-17T02:05:07.068Z,11.28
2018-05-17T02:06:07.006Z,11.22
2018-05-17T02:07:07.106Z,11.23
2018-05-17T02:08:07.024Z,11.3
2018-05-17T02:09:06.946Z,11.25
2018-05-17T02:10:07.214Z,11.22
2018-05-17T02:11:06.992Z,11.24
2018-05-17T02:12:06.982Z,11.23
2018-05-17T02:13:06.961Z,11.23
2018-05-17T02:14:06.980Z,11.25
2018-05-17T02:15:06.967Z,11.26
2018-05-17T02:16:06.972Z,11.25
2018-05-17T02:17:06.989Z,11.24
2018-05-17T02:18:06.989Z,11.25
2018-05-17T02:19:07.439Z,11.23
2018-05-17T02:20:06.971Z,11.26
2018-05-17T02:21:06.975Z,11.22
2018-05-17T02:22:06.980Z,11.18
2018-05-17T02:23:07.005Z,11.19
2018-05-17T02:24:07.089Z,11.18
2018-05-17T02:25:07.014Z,11.16
2018-05-17T02:26:07.033Z,11.18
2018-05-17T02:27:06.976Z,11.19
2018-05-17T02:28:07.048Z,11.19
2018-05-17T02:29:07.026Z,11.2
2018-05-17T02:30:06.998Z,11.18
2018-05-17T02:31:07.031Z,11.22
2018-05-17T02:32:06.989Z,11.24
2018-05-17T02:33:07.122Z,11.25
2018-05-17T02:34:06.997Z,11.21
2018-05-17T02:35:06.982Z,11.23
2018-05-17T02:36:06.969Z,11.24
2018-05-17T02:37:07.035Z,11.24
2018-05-17T02:38:06.979Z,11.24
2018-05-17T02:39:07.239Z,11.22
2018-05-17T02:40:07.061Z,11.25
2018-05-17T02:41:06.993Z,11.25
2018-05-17T02:42:07.059Z,11.27
2018-05-17T02:43:07.049Z,11.28
2018-05-17T02:44:06.983Z,11.19
2018-05-17T02:45:07.110Z,11.24
2018-05-17T02:46:07.029Z,11.24
2018-05-17T02:47:06.972Z,11.23
2018-05-17T02:48:07.043Z,11.24
2018-05-17T02:49:07.663Z,11.21
2018-05-17T02:50:06.994Z,11.25
2018-05-17T02:51:07.028Z,11.27
2018-05-17T02:52:07.199Z,11.28
2018-05-17T02:53:06.993Z,11.27
2018-05-17T02:54:07.022Z,11.22
2018-05-17T02:55:07.022Z,11.2
2018-05-17T02:56:07.112Z,11.2
2018-05-17T02:57:07.090Z,11.19
2018-05-17T02:58:07.115Z,11.19
2018-05-17T02:59:07.044Z,11.21
2018-05-17T03:00:07.006Z,11.21
2018-05-17T03:01:07.033Z,11.24
2018-05-17T03:02:07.011Z,11.23
2018-05-17T03:03:07.074Z,11.21
2018-05-17T03:04:07.204Z,11.23
2018-05-17T03:05:07.022Z,11.24
2018-05-17T03:06:07.047Z,11.22
2018-05-17T03:07:07.079Z,11.23
2018-05-17T03:08:07.021Z,11.18
2018-05-17T03:09:07.106Z,11.18
2018-05-17T03:10:06.990Z,11.16
2018-05-17T03:11:06.991Z,11.15
2018-05-17T03:12:06.998Z,11.18
2018-05-17T03:13:07.076Z,11.22
2018-05-17T03:14:07.052Z,11.15
2018-05-17T03:15:07.020Z,11.12
2018-05-17T03:16:07.013Z,11.11
2018-05-17T03:17:07.069Z,11.18
2018-05-17T03:18:07.035Z,11.21
2018-05-17T03:19:07.053Z,11.11
2018-05-17T03:20:07.028Z,11.17
2018-05-17T03:21:07.014Z,11.19
2018-05-17T03:22:07.071Z,11.14
2018-05-17T03:23:07.087Z,11.14
2018-05-17T03:24:07.415Z,11.17
2018-05-17T03:25:07.023Z,11.17
2018-05-17T03:26:07.174Z,11.14
2018-05-17T03:27:07.025Z,11.12
2018-05-17T03:28:07.153Z,11.13
2018-05-17T03:29:07.089Z,11.16
2018-05-17T03:30:07.037Z,11.18
2018-05-17T03:31:07.025Z,11.18
2018-05-17T03:32:07.013Z,11.13
2018-05-17T03:33:07.037Z,11.18
2018-05-17T03:34:07.047Z,11.18
2018-05-17T03:35:07.188Z,11.17
2018-05-17T03:36:07.030Z,11.2
2018-05-17T03:37:07.048Z,11.19
2018-05-17T03:38:07.042Z,11.22
2018-05-17T03:39:06.994Z,11.18
2018-05-17T03:40:07.058Z,11.18
2018-05-17T03:41:06.989Z,11.15
2018-05-17T03:42:07.009Z,11.17
2018-05-17T03:43:07.035Z,11.17
2018-05-17T03:44:07.051Z,11.14
2018-05-17T03:45:07.023Z,11.17
2018-05-17T03:46:07.004Z,11.22
2018-05-17T03:47:07.013Z,11.23
2018-05-17T03:48:06.988Z,11.17
2018-05-17T03:49:07.733Z,11.18
2018-05-17T03:50:07.026Z,11.21
2018-05-17T03:51:07.003Z,11.22
2018-05-17T03:52:07.024Z,11.2
2018-05-17T03:53:07.433Z,11.21
2018-05-17T03:54:07.021Z,11.21
2018-05-17T03:55:07.029Z,11.16
2018-05-17T03:56:07.103Z,11.17
2018-05-17T03:57:07.036Z,11.23
2018-05-17T03:58:07.102Z,11.19
2018-05-17T03:59:07.015Z,11.19
2018-05-17T04:00:07.029Z,11.19
2018-05-17T04:01:07.047Z,11.25
2018-05-17T04:02:07.115Z,11.22
2018-05-17T04:03:07.083Z,11.2
2018-05-17T04:04:07.051Z,11.22
2018-05-17T04:05:07.552Z,11.21
2018-05-17T04:06:07.035Z,11.19
2018-05-17T04:07:07.113Z,11.2
2018-05-17T04:08:07.060Z,11.2
2018-05-17T04:09:07.089Z,11.25
2018-05-17T04:10:07.133Z,11.23
2018-05-17T04:11:07.037Z,11.21
2018-05-17T04:12:07.030Z,11.23
2018-05-17T04:13:07.060Z,11.25
2018-05-17T04:14:07.054Z,11.23
2018-05-17T04:15:07.033Z,11.24
2018-05-17T04:16:07.038Z,11.21
2018-05-17T04:17:07.068Z,11.2
2018-05-17T04:18:07.053Z,11.17
2018-05-17T04:19:07.337Z,11.17
2018-05-17T04:20:07.040Z,11.19
2018-05-17T04:21:07.147Z,11.26
2018-05-17T04:22:07.051Z,11.16
2018-05-17T04:23:07.052Z,11.18
2018-05-17T04:24:07.195Z,11.21
2018-05-17T04:25:07.173Z,11.2
2018-05-17T04:26:07.081Z,11.2
2018-05-17T04:27:07.072Z,11.18
2018-05-17T04:28:07.041Z,11.17
2018-05-17T04:29:07.029Z,11.18
2018-05-17T04:30:07.037Z,11.24
2018-05-17T04:31:07.038Z,11.27
2018-05-17T04:32:07.045Z,11.19
2018-05-17T04:33:07.130Z,11.19
2018-05-17T04:34:07.049Z,11.23
2018-05-17T04:35:07.147Z,11.23
2018-05-17T04:36:07.060Z,11.25
2018-05-17T04:37:07.050Z,11.22
2018-05-17T04:38:07.037Z,11.23
2018-05-17T04:39:07.064Z,11.22
2018-05-17T04:40:07.043Z,11.24
2018-05-17T04:41:07.039Z,11.18
2018-05-17T04:42:07.054Z,11.22
2018-05-17T04:43:07.094Z,11.17
2018-05-17T04:44:07.058Z,11.22
2018-05-17T04:45:07.058Z,11.2
2018-05-17T04:46:07.054Z,11.17
2018-05-17T04:47:07.509Z,11.2
2018-05-17T04:48:07.038Z,11.18
2018-05-17T04:49:07.028Z,11.12
2018-05-17T04:50:07.055Z,11.11
2018-05-17T04:51:07.044Z,11.11
2018-05-17T04:52:07.145Z,11.18
2018-05-17T04:53:07.141Z,11.13
2018-05-17T04:54:07.070Z,11.12
2018-05-17T04:55:07.038Z,11.08
2018-05-17T04:56:07.052Z,11.1
2018-05-17T04:57:07.064Z,11.13
2018-05-17T04:58:07.025Z,11.14
2018-05-17T04:59:07.034Z,11.09
2018-05-17T05:00:07.057Z,11.07
2018-05-17T05:01:07.039Z,11.08
2018-05-17T05:02:07.053Z,11.08
2018-05-17T05:03:07.040Z,11.06
2018-05-17T05:04:07.224Z,11.06
2018-05-17T05:05:07.066Z,11.06
2018-05-17T05:06:07.081Z,11.08
2018-05-17T05:07:07.064Z,11.06
2018-05-17T05:08:07.044Z,11
2018-05-17T05:09:07.136Z,11.07
2018-05-17T05:10:07.069Z,11.1
2018-05-17T05:11:07.090Z,11.08
2018-05-17T05:12:07.057Z,11.1
2018-05-17T05:13:07.068Z,11.06
2018-05-17T05:14:07.208Z,11.08
2018-05-17T05:15:07.091Z,11.11
2018-05-17T05:16:07.074Z,11.11
2018-05-17T05:17:07.192Z,11.05
2018-05-17T05:18:07.125Z,11.1
2018-05-17T05:19:07.095Z,11.06
2018-05-17T05:20:07.101Z,11.1
2018-05-17T05:21:07.274Z,11.08
2018-05-17T05:22:07.084Z,11.12
2018-05-17T05:23:07.080Z,11.11
2018-05-17T05:24:07.091Z,11.14
2018-05-17T05:25:07.283Z,11.13
2018-05-17T05:26:07.084Z,11.14
2018-05-17T05:27:07.083Z,11.15
2018-05-17T05:28:07.078Z,11.13
2018-05-17T05:29:07.097Z,11.14
2018-05-17T05:30:07.062Z,11.12
2018-05-17T05:31:07.082Z,11.18
2018-05-17T05:32:07.182Z,11.12
2018-05-17T05:33:07.036Z,11.1
2018-05-17T05:34:07.132Z,11.16
2018-05-17T05:35:07.070Z,11.1
2018-05-17T05:36:07.082Z,11.11
2018-05-17T05:37:07.172Z,11.15
2018-05-17T05:38:07.075Z,11.06
2018-05-17T05:39:07.035Z,11.08
2018-05-17T05:40:07.058Z,11.02
2018-05-17T05:41:07.065Z,11.04
2018-05-17T05:42:07.090Z,11.03
2018-05-17T05:43:07.170Z,11.05
2018-05-17T05:44:07.076Z,11.04
2018-05-17T05:45:07.059Z,10.98
2018-05-17T05:46:07.383Z,10.98
2018-05-17T05:47:07.042Z,10.94
2018-05-17T05:48:07.063Z,10.83
2018-05-17T05:49:07.101Z,10.86
2018-05-17T05:50:07.067Z,10.73
2018-05-17T05:51:07.084Z,10.8
2018-05-17T05:52:07.081Z,10.73
2018-05-17T05:53:07.074Z,10.68
2018-05-17T05:54:07.104Z,10.74
2018-05-17T05:55:07.100Z,10.76
2018-05-17T05:56:07.118Z,10.77
2018-05-17T05:57:07.073Z,10.68
2018-05-17T05:58:07.088Z,10.76
2018-05-17T05:59:07.148Z,10.82
2018-05-17T06:00:07.068Z,10.84
2018-05-17T06:01:07.072Z,10.76
2018-05-17T06:02:07.091Z,10.75
2018-05-17T06:03:07.066Z,10.73
2018-05-17T06:04:07.202Z,10.78
2018-05-17T06:05:07.064Z,10.79
2018-05-17T06:06:07.074Z,10.7
2018-05-17T06:07:07.078Z,10.68
2018-05-17T06:08:07.063Z,10.7
2018-05-17T06:09:07.061Z,10.6
2018-05-17T06:10:07.100Z,10.66
2018-05-17T06:11:07.053Z,10.7
2018-05-17T06:12:07.095Z,10.62
2018-05-17T06:13:07.081Z,10.63
2018-05-17T06:14:07.090Z,10.72
2018-05-17T06:15:07.061Z,10.66
2018-05-17T06:16:07.123Z,10.55
2018-05-17T06:17:07.090Z,10.63
2018-05-17T06:18:07.230Z,10.65
2018-05-17T06:19:07.113Z,10.57
2018-05-17T06:20:07.130Z,10.64
2018-05-17T06:21:07.065Z,10.66
2018-05-17T06:22:07.064Z,10.7
2018-05-17T06:23:07.080Z,10.68
2018-05-17T06:24:07.170Z,10.6
2018-05-17T06:25:07.212Z,10.68
2018-05-17T06:26:07.111Z,10.67
2018-05-17T06:27:07.105Z,10.69
2018-05-17T06:28:07.191Z,10.56
2018-05-17T06:29:07.087Z,10.65
2018-05-17T06:30:07.101Z,10.67
2018-05-17T06:31:07.229Z,10.7
2018-05-17T06:32:07.131Z,10.61
2018-05-17T06:33:07.120Z,10.68
2018-05-17T06:34:07.067Z,10.64
2018-05-17T06:35:07.104Z,10.54
2018-05-17T06:36:07.105Z,10.51
2018-05-17T06:37:07.157Z,10.54
2018-05-17T06:38:08.718Z,10.63
2018-05-17T06:39:07.218Z,10.59
2018-05-17T06:40:07.239Z,10.6
2018-05-17T06:41:07.197Z,10.52
2018-05-17T06:42:09.382Z,10.46
2018-05-17T06:43:07.246Z,10.31
2018-05-17T06:44:07.135Z,10.31
2018-05-17T06:45:07.204Z,10.41
2018-05-17T06:46:07.123Z,10.38
2018-05-17T06:47:07.219Z,10.38
2018-05-17T06:48:07.126Z,10.42
2018-05-17T06:49:07.127Z,10.37
2018-05-17T06:50:07.177Z,10.44
2018-05-17T06:51:07.094Z,10.5
2018-05-17T06:52:07.085Z,10.5
2018-05-17T06:53:07.209Z,10.49
2018-05-17T06:54:07.128Z,10.4
2018-05-17T06:55:07.274Z,10.31
2018-05-17T06:56:07.089Z,10.3
2018-05-17T06:57:07.153Z,10.37
2018-05-17T06:58:07.275Z,10.39
2018-05-17T06:59:07.154Z,10.33
2018-05-17T07:00:07.176Z,10.32
2018-05-17T07:01:07.728Z,10.31
2018-05-17T07:02:07.138Z,10.29
2018-05-17T07:03:07.163Z,10.3
2018-05-17T07:04:07.191Z,10.35
2018-05-17T07:05:07.284Z,10.2
2018-05-17T07:06:07.153Z,10.25
2018-05-17T07:07:07.116Z,10.29
2018-05-17T07:08:07.099Z,10.35
2018-05-17T07:09:07.094Z,10.34
2018-05-17T07:10:07.155Z,10.31
2018-05-17T07:11:07.127Z,10.27
2018-05-17T07:12:07.156Z,10.35
2018-05-17T07:13:07.178Z,10.29
2018-05-17T07:14:07.119Z,10.22
2018-05-17T07:15:07.156Z,10.32
2018-05-17T07:16:07.100Z,10.33
2018-05-17T07:17:07.130Z,10.21
2018-05-17T07:18:09.150Z,10.19
2018-05-17T07:19:07.181Z,10.26
2018-05-17T07:20:07.552Z,10.22
2018-05-17T07:21:07.166Z,10.28
2018-05-17T07:22:07.124Z,10.38
2018-05-17T07:23:07.297Z,10.33
2018-05-17T07:24:07.492Z,10.18
2018-05-17T07:25:07.118Z,10.11
2018-05-17T07:26:07.161Z,10.17
2018-05-17T07:27:07.243Z,10.19
2018-05-17T07:28:07.164Z,10.26
2018-05-17T07:29:07.111Z,10.22
2018-05-17T07:30:07.212Z,10.35
2018-05-17T07:31:07.127Z,10.35
2018-05-17T07:32:07.171Z,10.34
2018-05-17T07:33:07.155Z,10.26
2018-05-17T07:34:07.328Z,10.22
2018-05-17T07:35:07.153Z,10.16
2018-05-17T07:36:07.457Z,10.14
2018-05-17T07:37:07.177Z,10.07
2018-05-17T07:38:07.215Z,9.98
2018-05-17T07:39:07.166Z,10
2018-05-17T07:40:07.128Z,10.15
2018-05-17T07:41:07.208Z,10.11
2018-05-17T07:42:07.281Z,10.16
2018-05-17T07:43:07.167Z,10
2018-05-17T07:44:07.134Z,10.15
2018-05-17T07:45:07.179Z,10.14
2018-05-17T07:46:07.130Z,10.13
2018-05-17T07:47:07.634Z,10.12
2018-05-17T07:48:07.157Z,10.08
2018-05-17T07:49:07.152Z,9.99
2018-05-17T07:50:07.125Z,10.1
2018-05-17T07:51:07.132Z,10.15
2018-05-17T07:52:07.715Z,10.11
2018-05-17T07:53:07.153Z,10.12
2018-05-17T07:54:07.145Z,10.13
2018-05-17T07:55:07.194Z,10.17
2018-05-17T07:56:07.263Z,10.03
2018-05-17T07:57:07.153Z,10.12
2018-05-17T07:58:07.142Z,10.15
2018-05-17T07:59:07.140Z,10.1
2018-05-17T08:00:07.150Z,9.91
2018-05-17T08:01:07.139Z,10.01
2018-05-17T08:02:07.149Z,10.05
2018-05-17T08:03:07.156Z,9.93
2018-05-17T08:04:07.164Z,9.89
2018-05-17T08:05:07.171Z,10.02
2018-05-17T08:06:07.268Z,10.15
2018-05-17T08:07:07.166Z,10.04
2018-05-17T08:08:07.144Z,10.07
2018-05-17T08:09:07.242Z,9.98
2018-05-17T08:10:07.170Z,9.99
2018-05-17T08:11:07.152Z,9.9
2018-05-17T08:12:07.169Z,9.93
2018-05-17T08:13:07.171Z,9.96
2018-05-17T08:14:07.125Z,10.06
2018-05-17T08:15:07.150Z,10.06
2018-05-17T08:16:07.157Z,9.98
2018-05-17T08:17:07.138Z,9.88
2018-05-17T08:18:07.166Z,9.9
2018-05-17T08:19:07.132Z,9.89
2018-05-17T08:20:07.117Z,9.91
2018-05-17T08:21:07.157Z,9.9
2018-05-17T08:22:07.113Z,9.9
2018-05-17T08:23:07.151Z,9.83
2018-05-17T08:24:07.155Z,9.91
2018-05-17T08:25:07.128Z,9.87
2018-05-17T08:26:07.155Z,9.93
2018-05-17T08:27:07.152Z,9.87
2018-05-17T08:28:07.143Z,9.83
2018-05-17T08:29:07.157Z,9.86
2018-05-17T08:30:07.134Z,9.97
2018-05-17T08:31:07.144Z,9.89
2018-05-17T08:32:07.163Z,10.02
2018-05-17T08:33:07.161Z,10.02
2018-05-17T08:34:07.132Z,10.03
2018-05-17T08:35:07.144Z,10.06
2018-05-17T08:36:07.903Z,9.95
2018-05-17T08:37:07.165Z,9.97
2018-05-17T08:38:07.312Z,10.06
2018-05-17T08:39:07.167Z,10.17
2018-05-17T08:40:07.224Z,10.02
2018-05-17T08:41:07.156Z,10.04
2018-05-17T08:42:07.173Z,10
2018-05-17T08:43:07.184Z,9.99
2018-05-17T08:44:07.224Z,9.99
2018-05-17T08:45:07.154Z,9.92
2018-05-17T08:46:07.139Z,9.74
2018-05-17T08:47:07.168Z,9.96
2018-05-17T08:48:07.240Z,9.79
2018-05-17T08:49:07.145Z,9.67
2018-05-17T08:50:07.152Z,9.77
2018-05-17T08:51:07.233Z,9.75
2018-05-17T08:52:07.509Z,9.71
2018-05-17T08:53:07.210Z,9.74
2018-05-17T08:54:07.188Z,9.82
2018-05-17T08:55:07.205Z,9.84
2018-05-17T08:56:07.135Z,9.7
2018-05-17T08:57:07.153Z,9.75
2018-05-17T08:58:07.199Z,9.69
2018-05-17T08:59:07.199Z,9.66
2018-05-17T09:00:07.279Z,9.73
2018-05-17T09:01:07.211Z,9.77
2018-05-17T09:02:07.516Z,9.83
2018-05-17T09:03:07.199Z,9.79
2018-05-17T09:04:07.291Z,9.69
2018-05-17T09:05:07.163Z,9.67
2018-05-17T09:06:07.564Z,9.68
2018-05-17T09:07:07.153Z,9.72
2018-05-17T09:08:07.172Z,9.67
2018-05-17T09:09:07.162Z,9.67
2018-05-17T09:10:07.142Z,9.7
2018-05-17T09:11:07.161Z,9.78
2018-05-17T09:12:07.155Z,9.72
2018-05-17T09:13:07.142Z,9.7
2018-05-17T09:14:07.187Z,9.76
2018-05-17T09:15:07.166Z,9.71
2018-05-17T09:16:07.161Z,9.63
2018-05-17T09:17:07.216Z,9.66
2018-05-17T09:18:07.330Z,9.63
2018-05-17T09:19:07.195Z,9.67
2018-05-17T09:20:07.634Z,9.65
2018-05-17T09:21:07.169Z,9.58
2018-05-17T09:22:07.176Z,9.66
2018-05-17T09:23:07.185Z,9.63
2018-05-17T09:24:07.159Z,9.67
2018-05-17T09:25:07.215Z,9.7
2018-05-17T09:26:07.157Z,9.65
2018-05-17T09:27:07.199Z,9.65
2018-05-17T09:28:07.215Z,9.37
2018-05-17T09:29:07.665Z,9.46
2018-05-17T09:30:07.208Z,9.58
2018-05-17T09:31:07.176Z,9.61
2018-05-17T09:32:07.210Z,9.57
2018-05-17T09:33:07.189Z,9.63
2018-05-17T09:34:07.211Z,9.51
2018-05-17T09:35:07.188Z,9.44
2018-05-17T09:36:07.176Z,9.47
2018-05-17T09:37:07.200Z,9.46
2018-05-17T09:38:07.186Z,9.45
2018-05-17T09:39:07.243Z,9.51
2018-05-17T09:40:07.236Z,9.52
2018-05-17T09:41:07.297Z,9.53
2018-05-17T09:42:07.241Z,9.54
2018-05-17T09:43:07.209Z,9.58
2018-05-17T09:44:07.170Z,9.59
2018-05-17T09:45:07.172Z,9.61
2018-05-17T09:46:07.162Z,9.46
2018-05-17T09:47:07.280Z,9.5
2018-05-17T09:48:07.150Z,9.61
2018-05-17T09:49:07.184Z,9.56
2018-05-17T09:50:07.172Z,9.51
2018-05-17T09:51:07.173Z,9.39
2018-05-17T09:52:07.187Z,9.42
2018-05-17T09:53:07.158Z,9.62
2018-05-17T09:54:07.165Z,9.4
2018-05-17T09:55:08.071Z,9.56
2018-05-17T09:56:07.210Z,9.47
2018-05-17T09:57:07.191Z,9.5
2018-05-17T09:58:07.170Z,9.36
2018-05-17T09:59:07.217Z,9.5
2018-05-17T10:00:07.208Z,9.55
2018-05-17T10:01:07.189Z,9.55
2018-05-17T10:02:07.154Z,9.59
2018-05-17T10:03:07.253Z,9.63
2018-05-17T10:04:07.225Z,9.61
2018-05-17T10:05:07.202Z,9.56
2018-05-17T10:06:07.298Z,9.54
2018-05-17T10:07:07.187Z,9.44
2018-05-17T10:08:07.187Z,9.47
2018-05-17T10:09:07.194Z,9.52
2018-05-17T10:10:07.205Z,9.45
2018-05-17T10:11:14.541Z,9.44
2018-05-17T10:12:07.215Z,9.54
2018-05-17T10:13:07.209Z,9.64
2018-05-17T10:14:07.226Z,9.55
2018-05-17T10:15:07.243Z,9.57
2018-05-17T10:16:07.250Z,9.53
2018-05-17T10:17:07.238Z,9.36
2018-05-17T10:18:07.258Z,9.35
2018-05-17T10:19:07.222Z,9.31
2018-05-17T10:20:07.206Z,9.42
2018-05-17T10:21:07.191Z,9.49
2018-05-17T10:22:07.553Z,9.59
2018-05-17T10:23:07.696Z,9.61
2018-05-17T10:24:07.241Z,9.33
2018-05-17T10:25:07.539Z,9.29
2018-05-17T10:26:07.338Z,9.34
2018-05-17T10:27:07.211Z,9.36
2018-05-17T10:28:07.239Z,9.52
2018-05-17T10:29:07.271Z,9.6
2018-05-17T10:30:07.240Z,9.56
2018-05-17T10:31:07.224Z,9.5
2018-05-17T10:32:07.206Z,9.52
2018-05-17T10:33:07.237Z,9.42
2018-05-17T10:34:07.239Z,9.38
2018-05-17T10:35:07.237Z,9.29
2018-05-17T10:36:07.287Z,9.33
2018-05-17T10:37:07.290Z,9.36
2018-05-17T10:38:07.270Z,9.32
2018-05-17T10:39:07.195Z,9.32
2018-05-17T10:40:07.243Z,9.38
2018-05-17T10:41:07.186Z,9.46
2018-05-17T10:42:07.717Z,9.28
2018-05-17T10:43:07.199Z,9.34
2018-05-17T10:44:07.248Z,9.24
2018-05-17T10:45:07.277Z,9.44
2018-05-17T10:46:07.304Z,9.25
2018-05-17T10:47:07.224Z,9.1
2018-05-17T10:48:07.253Z,9.09
2018-05-17T10:49:07.417Z,9.08
2018-05-17T10:50:07.236Z,9.13
2018-05-17T10:51:07.222Z,9.17
2018-05-17T10:52:07.322Z,9.01
2018-05-17T10:53:07.246Z,9.11
2018-05-17T10:54:07.228Z,9.15
2018-05-17T10:55:07.227Z,9.32
2018-05-17T10:56:07.207Z,9.3
2018-05-17T10:57:07.214Z,9.24
2018-05-17T10:58:07.236Z,9.18
2018-05-17T10:59:07.229Z,9.28
2018-05-17T11:00:07.280Z,9.08
2018-05-17T11:01:07.203Z,9.08
2018-05-17T11:02:07.208Z,9.01
2018-05-17T11:03:07.273Z,9.04
2018-05-17T11:04:07.396Z,9.15
2018-05-17T11:05:07.217Z,9.21
2018-05-17T11:06:07.208Z,9.03
2018-05-17T11:07:07.223Z,9.11
2018-05-17T11:08:07.258Z,9.07
2018-05-17T11:09:07.227Z,9.07
2018-05-17T11:10:07.221Z,9.17
2018-05-17T11:11:07.248Z,9.13
2018-05-17T11:12:08.231Z,9.14
2018-05-17T11:13:07.230Z,9.16
2018-05-17T11:14:07.211Z,9.24
2018-05-17T11:15:07.515Z,9.36
2018-05-17T11:16:07.245Z,9.4
2018-05-17T11:17:07.231Z,9.26
2018-05-17T11:18:07.255Z,9.37
2018-05-17T11:19:07.255Z,9.47
2018-05-17T11:20:07.319Z,9.43
2018-05-17T11:21:07.281Z,9.53
2018-05-17T11:22:07.303Z,9.5
2018-05-17T11:23:07.279Z,9.24
2018-05-17T11:24:07.307Z,9.25
2018-05-17T11:25:07.293Z,9.32
2018-05-17T11:26:12.949Z,9.23
2018-05-17T11:27:07.238Z,9.2
2018-05-17T11:28:07.275Z,9.36
2018-05-17T11:29:07.230Z,9.22
2018-05-17T11:30:07.213Z,9.06
2018-05-17T11:31:07.262Z,9.13
2018-05-17T11:32:07.233Z,9.06
2018-05-17T11:33:08.016Z,9.07
2018-05-17T11:34:07.210Z,8.97
2018-05-17T11:35:07.212Z,9.13
2018-05-17T11:36:07.228Z,9.25
2018-05-17T11:37:07.212Z,9.26
2018-05-17T11:38:07.351Z,9.18
2018-05-17T11:39:07.223Z,9.22
2018-05-17T11:40:07.244Z,9.12
2018-05-17T11:41:07.238Z,9.1
2018-05-17T11:42:07.322Z,9.09
2018-05-17T11:43:07.229Z,8.98
2018-05-17T11:44:07.787Z,9.28
2018-05-17T11:45:07.215Z,9.33
2018-05-17T11:46:07.254Z,9.14
2018-05-17T11:47:07.274Z,8.92
2018-05-17T11:48:07.260Z,9.14
2018-05-17T11:49:07.256Z,8.88
2018-05-17T11:50:07.249Z,9.02
2018-05-17T11:51:07.236Z,9.12
2018-05-17T11:52:07.214Z,9.18
2018-05-17T11:53:07.221Z,9.37
2018-05-17T11:54:07.249Z,9.21
2018-05-17T11:55:07.243Z,8.84
2018-05-17T11:56:07.279Z,8.91
2018-05-17T11:57:07.268Z,9.1
2018-05-17T11:58:07.246Z,9.22
2018-05-17T11:59:07.231Z,9.25
2018-05-17T12:00:07.260Z,8.89
2018-05-17T12:01:07.324Z,8.92
2018-05-17T12:02:07.229Z,9.08
2018-05-17T12:03:07.235Z,8.96
2018-05-17T12:04:07.449Z,8.88
2018-05-17T12:05:08.948Z,9.1
2018-05-17T12:06:07.374Z,9.09
2018-05-17T12:07:07.233Z,9.09
2018-05-17T12:08:07.239Z,9.22
2018-05-17T12:09:07.303Z,9.31
2018-05-17T12:10:07.275Z,9.32
2018-05-17T12:11:07.233Z,8.96
2018-05-17T12:12:07.268Z,9.03
2018-05-17T12:13:07.359Z,9
2018-05-17T12:14:07.268Z,9.14
2018-05-17T12:15:07.267Z,9.1
2018-05-17T12:16:07.542Z,8.9
2018-05-17T12:17:07.253Z,8.89
2018-05-17T12:18:07.290Z,8.97
2018-05-17T12:19:07.311Z,8.76
2018-05-17T12:20:07.412Z,8.88
2018-05-17T12:21:07.341Z,8.81
2018-05-17T12:22:07.316Z,8.94
2018-05-17T12:23:08.555Z,8.99
2018-05-17T12:24:07.402Z,9.03
2018-05-17T12:25:07.367Z,8.82
2018-05-17T12:26:07.579Z,8.84
2018-05-17T12:27:07.244Z,8.99
2018-05-17T12:28:07.407Z,8.95
2018-05-17T12:29:07.408Z,9.16
2018-05-17T12:30:07.409Z,8.98
2018-05-17T12:31:07.408Z,8.93
2018-05-17T12:32:07.367Z,8.84
2018-05-17T12:33:07.441Z,8.67
2018-05-17T12:34:07.358Z,8.85
2018-05-17T12:35:07.344Z,8.88
2018-05-17T12:36:07.463Z,8.89
2018-05-17T12:37:07.827Z,9.01
2018-05-17T12:38:07.469Z,9
2018-05-17T12:39:07.266Z,8.79
2018-05-17T12:40:07.366Z,8.75
2018-05-17T12:41:07.399Z,8.79
2018-05-17T12:42:07.353Z,8.98
2018-05-17T12:43:07.289Z,8.95
2018-05-17T12:44:07.291Z,9.03
2018-05-17T12:45:07.382Z,8.78
2018-05-17T12:46:07.409Z,8.9
2018-05-17T12:47:07.272Z,8.82
2018-05-17T12:48:07.427Z,8.64
2018-05-17T12:49:07.441Z,8.68
2018-05-17T12:50:07.353Z,8.81
2018-05-17T12:51:07.385Z,8.82
2018-05-17T12:52:07.391Z,8.72
2018-05-17T12:53:07.372Z,8.65
2018-05-17T12:54:07.306Z,8.54
2018-05-17T12:55:07.575Z,8.62
2018-05-17T12:56:07.331Z,8.57
2018-05-17T12:57:07.400Z,8.72
2018-05-17T12:58:07.422Z,8.7
2018-05-17T12:59:07.328Z,8.61
2018-05-17T13:00:07.439Z,9.06
2018-05-17T13:01:07.266Z,8.62
2018-05-17T13:02:07.263Z,8.57
2018-05-17T13:03:07.290Z,8.54
2018-05-17T13:04:07.448Z,8.51
2018-05-17T13:05:07.264Z,8.39